sensor_id;sensor_type;location;lat;lon;timestamp;P1;P2;P0
47982;PMS5003;33751;50.816;-1.214;2024-02-23T00:01:32;4;0;
47982;PMS5003;33751;50.816;-1.214;2024-02-23T00:03:59;0;0;
47982;PMS5003;33751;50.816;-1.214;2024-02-23T00:06:25;0;0;
47982;PMS5003;33751;50.816;-1.214;2024-02-23T00:08:51;1;0;
47982;PMS5003;33751;50.816;-1.214;2024-02-23T00:11:18;1;1;
47982;PMS5003;33751;50.816;-1.214;2024-02-23T00:13:44;0;0;
47982;PMS5003;33751;50.816;-1.214;2024-02-23T00:16:11;0;0;
47982;PMS5003;33751;50.816;-1.214;2024-02-23T00:18:38;0;0;
47982;PMS5003;33751;50.816;-1.214;2024-02-23T00:21:05;0;0;
47982;PMS5003;33751;50.816;-1.214;2024-02-23T00:23:31;0;0;
47982;PMS5003;33751;50.816;-1.214;2024-02-23T00:25:58;2;1;
47982;PMS5003;33751;50.816;-1.214;2024-02-23T00:28:24;3;0;
47982;PMS5003;33751;50.816;-1.214;2024-02-23T00:30:52;0;0;
47982;PMS5003;33751;50.816;-1.214;2024-02-23T00:33:19;0;0;
47982;PMS5003;33751;50.816;-1.214;2024-02-23T00:35:45;0;0;
47982;PMS5003;33751;50.816;-1.214;2024-02-23T00:38:12;0;0;
47982;PMS5003;33751;50.816;-1.214;2024-02-23T00:40:38;0;0;
47982;PMS5003;33751;50.816;-1.214;2024-02-23T00:43:05;0;0;
47982;PMS5003;33751;50.816;-1.214;2024-02-23T00:45:31;0;0;
47982;PMS5003;33751;50.816;-1.214;2024-02-23T00:47:59;1;0;
47982;PMS5003;33751;50.816;-1.214;2024-02-23T00:50:25;0;0;
47982;PMS5003;33751;50.816;-1.214;2024-02-23T00:52:52;0;0;
47982;PMS5003;33751;50.816;-1.214;2024-02-23T00:55:18;1;1;
47982;PMS5003;33751;50.816;-1.214;2024-02-23T00:57:46;1;1;
47982;PMS5003;33751;50.816;-1.214;2024-02-23T01:00:12;0;0;
47982;PMS5003;33751;50.816;-1.214;2024-02-23T01:02:39;0;0;
47982;PMS5003;33751;50.816;-1.214;2024-02-23T01:05:06;0;0;
47982;PMS5003;33751;50.816;-1.214;2024-02-23T01:07:33;0;0;
47982;PMS5003;33751;50.816;-1.214;2024-02-23T01:10:00;1;1;
47982;PMS5003;33751;50.816;-1.214;2024-02-23T01:12:28;2;0;
47982;PMS5003;33751;50.816;-1.214;2024-02-23T01:15:00;1;1;
47982;PMS5003;33751;50.816;-1.214;2024-02-23T01:17:26;0;0;
47982;PMS5003;33751;50.816;-1.214;2024-02-23T01:19:53;0;0;
47982;PMS5003;33751;50.816;-1.214;2024-02-23T01:22:20;0;0;
47982;PMS5003;33751;50.816;-1.214;2024-02-23T01:24:47;0;0;
47982;PMS5003;33751;50.816;-1.214;2024-02-23T01:27:13;2;2;
47982;PMS5003;33751;50.816;-1.214;2024-02-23T01:29:40;1;1;
47982;PMS5003;33751;50.816;-1.214;2024-02-23T01:32:07;0;0;
47982;PMS5003;33751;50.816;-1.214;2024-02-23T01:34:33;0;0;
47982;PMS5003;33751;50.816;-1.214;2024-02-23T01:37:00;1;1;
47982;PMS5003;33751;50.816;-1.214;2024-02-23T01:39:26;0;0;
47982;PMS5003;33751;50.816;-1.214;2024-02-23T01:41:53;1;0;
47982;PMS5003;33751;50.816;-1.214;2024-02-23T01:44:20;0;0;
47982;PMS5003;33751;50.816;-1.214;2024-02-23T01:46:48;0;0;
47982;PMS5003;33751;50.816;-1.214;2024-02-23T01:49:16;0;0;
47982;PMS5003;33751;50.816;-1.214;2024-02-23T01:51:43;0;0;
47982;PMS5003;33751;50.816;-1.214;2024-02-23T01:54:11;1;1;
47982;PMS5003;33751;50.816;-1.214;2024-02-23T01:56:38;0;0;
47982;PMS5003;33751;50.816;-1.214;2024-02-23T01:59:05;0;0;
47982;PMS5003;33751;50.816;-1.214;2024-02-23T02:01:33;0;0;
47982;PMS5003;33751;50.816;-1.214;2024-02-23T02:04:00;0;0;
47982;PMS5003;33751;50.816;-1.214;2024-02-23T02:06:27;0;0;
47982;PMS5003;33751;50.816;-1.214;2024-02-23T02:08:55;2;0;
47982;PMS5003;33751;50.816;-1.214;2024-02-23T02:11:21;0;0;
47982;PMS5003;33751;50.816;-1.214;2024-02-23T02:13:48;1;1;
47982;PMS5003;33751;50.816;-1.214;2024-02-23T02:16:15;0;0;
47982;PMS5003;33751;50.816;-1.214;2024-02-23T02:18:41;0;0;
47982;PMS5003;33751;50.816;-1.214;2024-02-23T02:21:09;0;0;
47982;PMS5003;33751;50.816;-1.214;2024-02-23T02:23:35;0;0;
47982;PMS5003;33751;50.816;-1.214;2024-02-23T02:26:03;0;0;
47982;PMS5003;33751;50.816;-1.214;2024-02-23T02:28:30;0;0;
47982;PMS5003;33751;50.816;-1.214;2024-02-23T02:30:57;2;1;
47982;PMS5003;33751;50.816;-1.214;2024-02-23T02:33:25;0;0;
47982;PMS5003;33751;50.816;-1.214;2024-02-23T02:35:52;0;0;
47982;PMS5003;33751;50.816;-1.214;2024-02-23T02:38:18;0;0;
47982;PMS5003;33751;50.816;-1.214;2024-02-23T02:40:45;6;1;
47982;PMS5003;33751;50.816;-1.214;2024-02-23T02:43:12;1;1;
47982;PMS5003;33751;50.816;-1.214;2024-02-23T02:45:39;0;0;
47982;PMS5003;33751;50.816;-1.214;2024-02-23T02:48:07;1;0;
47982;PMS5003;33751;50.816;-1.214;2024-02-23T02:50:34;0;0;
47982;PMS5003;33751;50.816;-1.214;2024-02-23T02:53:00;0;0;
47982;PMS5003;33751;50.816;-1.214;2024-02-23T02:55:28;0;0;
47982;PMS5003;33751;50.816;-1.214;2024-02-23T02:57:55;1;1;
47982;PMS5003;33751;50.816;-1.214;2024-02-23T03:00:21;1;1;
47982;PMS5003;33751;50.816;-1.214;2024-02-23T03:02:48;1;1;
47982;PMS5003;33751;50.816;-1.214;2024-02-23T03:05:14;1;1;
47982;PMS5003;33751;50.816;-1.214;2024-02-23T03:07:40;2;1;
47982;PMS5003;33751;50.816;-1.214;2024-02-23T03:10:07;1;1;
47982;PMS5003;33751;50.816;-1.214;2024-02-23T03:12:34;0;0;
47982;PMS5003;33751;50.816;-1.214;2024-02-23T03:15:02;0;0;
47982;PMS5003;33751;50.816;-1.214;2024-02-23T03:17:29;0;0;
47982;PMS5003;33751;50.816;-1.214;2024-02-23T03:19:56;1;1;
47982;PMS5003;33751;50.816;-1.214;2024-02-23T03:22:23;1;0;
47982;PMS5003;33751;50.816;-1.214;2024-02-23T03:24:50;0;0;
47982;PMS5003;33751;50.816;-1.214;2024-02-23T03:27:17;0;0;
47982;PMS5003;33751;50.816;-1.214;2024-02-23T03:29:43;0;0;
47982;PMS5003;33751;50.816;-1.214;2024-02-23T03:32:10;0;0;
47982;PMS5003;33751;50.816;-1.214;2024-02-23T03:34:36;0;0;
47982;PMS5003;33751;50.816;-1.214;2024-02-23T03:37:03;1;1;
47982;PMS5003;33751;50.816;-1.214;2024-02-23T03:39:30;0;0;
47982;PMS5003;33751;50.816;-1.214;2024-02-23T03:41:57;0;0;
47982;PMS5003;33751;50.816;-1.214;2024-02-23T03:44:23;0;0;
47982;PMS5003;33751;50.816;-1.214;2024-02-23T03:46:50;1;1;
47982;PMS5003;33751;50.816;-1.214;2024-02-23T03:49:17;1;1;
47982;PMS5003;33751;50.816;-1.214;2024-02-23T03:51:43;0;0;
47982;PMS5003;33751;50.816;-1.214;2024-02-23T03:54:10;2;2;
47982;PMS5003;33751;50.816;-1.214;2024-02-23T03:56:38;0;0;
47982;PMS5003;33751;50.816;-1.214;2024-02-23T03:59:04;0;0;
47982;PMS5003;33751;50.816;-1.214;2024-02-23T04:01:31;1;1;
47982;PMS5003;33751;50.816;-1.214;2024-02-23T04:03:57;0;0;
47982;PMS5003;33751;50.816;-1.214;2024-02-23T04:06:24;0;0;
47982;PMS5003;33751;50.816;-1.214;2024-02-23T04:08:50;0;0;
47982;PMS5003;33751;50.816;-1.214;2024-02-23T04:11:17;0;0;
47982;PMS5003;33751;50.816;-1.214;2024-02-23T04:13:43;0;0;
47982;PMS5003;33751;50.816;-1.214;2024-02-23T04:16:10;0;0;
47982;PMS5003;33751;50.816;-1.214;2024-02-23T04:18:36;0;0;
47982;PMS5003;33751;50.816;-1.214;2024-02-23T04:21:03;1;1;
47982;PMS5003;33751;50.816;-1.214;2024-02-23T04:23:30;0;0;
47982;PMS5003;33751;50.816;-1.214;2024-02-23T04:25:57;0;0;
47982;PMS5003;33751;50.816;-1.214;2024-02-23T04:28:25;1;1;
47982;PMS5003;33751;50.816;-1.214;2024-02-23T04:30:52;0;0;
47982;PMS5003;33751;50.816;-1.214;2024-02-23T04:33:19;0;0;
47982;PMS5003;33751;50.816;-1.214;2024-02-23T04:35:45;0;0;
47982;PMS5003;33751;50.816;-1.214;2024-02-23T04:38:12;1;0;
47982;PMS5003;33751;50.816;-1.214;2024-02-23T04:40:39;0;0;
47982;PMS5003;33751;50.816;-1.214;2024-02-23T04:43:06;0;0;
47982;PMS5003;33751;50.816;-1.214;2024-02-23T04:45:33;0;0;
47982;PMS5003;33751;50.816;-1.214;2024-02-23T04:47:59;0;0;
47982;PMS5003;33751;50.816;-1.214;2024-02-23T04:50:25;0;0;
47982;PMS5003;33751;50.816;-1.214;2024-02-23T04:52:52;0;0;
47982;PMS5003;33751;50.816;-1.214;2024-02-23T04:55:18;0;0;
47982;PMS5003;33751;50.816;-1.214;2024-02-23T04:57:45;0;0;
47982;PMS5003;33751;50.816;-1.214;2024-02-23T05:00:12;0;0;
47982;PMS5003;33751;50.816;-1.214;2024-02-23T05:02:39;0;0;
47982;PMS5003;33751;50.816;-1.214;2024-02-23T05:05:06;0;0;
47982;PMS5003;33751;50.816;-1.214;2024-02-23T05:07:34;0;0;
47982;PMS5003;33751;50.816;-1.214;2024-02-23T05:10:01;0;0;
47982;PMS5003;33751;50.816;-1.214;2024-02-23T05:12:28;0;0;
47982;PMS5003;33751;50.816;-1.214;2024-02-23T05:14:56;0;0;
47982;PMS5003;33751;50.816;-1.214;2024-02-23T05:17:22;1;1;
47982;PMS5003;33751;50.816;-1.214;2024-02-23T05:19:48;0;0;
47982;PMS5003;33751;50.816;-1.214;2024-02-23T05:22:15;0;0;
47982;PMS5003;33751;50.816;-1.214;2024-02-23T05:24:41;0;0;
47982;PMS5003;33751;50.816;-1.214;2024-02-23T05:27:08;0;0;
47982;PMS5003;33751;50.816;-1.214;2024-02-23T05:29:34;0;0;
47982;PMS5003;33751;50.816;-1.214;2024-02-23T05:32:01;0;0;
47982;PMS5003;33751;50.816;-1.214;2024-02-23T05:34:27;1;0;
47982;PMS5003;33751;50.816;-1.214;2024-02-23T05:36:54;0;0;
47982;PMS5003;33751;50.816;-1.214;2024-02-23T05:39:20;0;0;
47982;PMS5003;33751;50.816;-1.214;2024-02-23T05:41:47;0;0;
47982;PMS5003;33751;50.816;-1.214;2024-02-23T05:44:13;0;0;
47982;PMS5003;33751;50.816;-1.214;2024-02-23T05:46:42;0;0;
47982;PMS5003;33751;50.816;-1.214;2024-02-23T05:49:09;0;0;
47982;PMS5003;33751;50.816;-1.214;2024-02-23T05:51:36;0;0;
47982;PMS5003;33751;50.816;-1.214;2024-02-23T05:54:03;0;0;
47982;PMS5003;33751;50.816;-1.214;2024-02-23T05:56:30;0;0;
47982;PMS5003;33751;50.816;-1.214;2024-02-23T05:58:57;0;0;
47982;PMS5003;33751;50.816;-1.214;2024-02-23T06:01:23;0;0;
47982;PMS5003;33751;50.816;-1.214;2024-02-23T06:03:50;0;0;
47982;PMS5003;33751;50.816;-1.214;2024-02-23T06:06:17;0;0;
47982;PMS5003;33751;50.816;-1.214;2024-02-23T06:08:43;1;1;
47982;PMS5003;33751;50.816;-1.214;2024-02-23T06:11:10;0;0;
47982;PMS5003;33751;50.816;-1.214;2024-02-23T06:13:36;0;0;
47982;PMS5003;33751;50.816;-1.214;2024-02-23T06:16:04;0;0;
47982;PMS5003;33751;50.816;-1.214;2024-02-23T06:18:31;1;0;
47982;PMS5003;33751;50.816;-1.214;2024-02-23T06:20:58;0;0;
47982;PMS5003;33751;50.816;-1.214;2024-02-23T06:23:24;1;1;
47982;PMS5003;33751;50.816;-1.214;2024-02-23T06:25:51;0;0;
47982;PMS5003;33751;50.816;-1.214;2024-02-23T06:28:17;0;0;
47982;PMS5003;33751;50.816;-1.214;2024-02-23T06:30:44;0;0;
47982;PMS5003;33751;50.816;-1.214;2024-02-23T06:33:10;0;0;
47982;PMS5003;33751;50.816;-1.214;2024-02-23T06:35:37;0;0;
47982;PMS5003;33751;50.816;-1.214;2024-02-23T06:38:04;0;0;
47982;PMS5003;33751;50.816;-1.214;2024-02-23T06:40:30;0;0;
47982;PMS5003;33751;50.816;-1.214;2024-02-23T06:42:57;1;0;
47982;PMS5003;33751;50.816;-1.214;2024-02-23T06:45:23;0;0;
47982;PMS5003;33751;50.816;-1.214;2024-02-23T06:47:50;0;0;
47982;PMS5003;33751;50.816;-1.214;2024-02-23T06:50:16;0;0;
47982;PMS5003;33751;50.816;-1.214;2024-02-23T06:52:43;0;0;
47982;PMS5003;33751;50.816;-1.214;2024-02-23T06:55:10;0;0;
47982;PMS5003;33751;50.816;-1.214;2024-02-23T06:57:37;6;2;
47982;PMS5003;33751;50.816;-1.214;2024-02-23T07:00:04;0;0;
47982;PMS5003;33751;50.816;-1.214;2024-02-23T07:02:32;0;0;
47982;PMS5003;33751;50.816;-1.214;2024-02-23T07:04:58;1;1;
47982;PMS5003;33751;50.816;-1.214;2024-02-23T07:07:25;0;0;
47982;PMS5003;33751;50.816;-1.214;2024-02-23T07:09:52;1;1;
47982;PMS5003;33751;50.816;-1.214;2024-02-23T07:12:18;0;0;
47982;PMS5003;33751;50.816;-1.214;2024-02-23T07:14:45;0;0;
47982;PMS5003;33751;50.816;-1.214;2024-02-23T07:17:11;0;0;
47982;PMS5003;33751;50.816;-1.214;2024-02-23T07:19:38;0;0;
47982;PMS5003;33751;50.816;-1.214;2024-02-23T07:22:04;0;0;
47982;PMS5003;33751;50.816;-1.214;2024-02-23T07:24:31;0;0;
47982;PMS5003;33751;50.816;-1.214;2024-02-23T07:26:57;0;0;
47982;PMS5003;33751;50.816;-1.214;2024-02-23T07:29:24;0;0;
47982;PMS5003;33751;50.816;-1.214;2024-02-23T07:31:50;0;0;
47982;PMS5003;33751;50.816;-1.214;2024-02-23T07:34:17;1;0;
47982;PMS5003;33751;50.816;-1.214;2024-02-23T07:36:43;0;0;
47982;PMS5003;33751;50.816;-1.214;2024-02-23T07:39:10;0;0;
47982;PMS5003;33751;50.816;-1.214;2024-02-23T07:41:37;2;0;
47982;PMS5003;33751;50.816;-1.214;2024-02-23T07:44:04;0;0;
47982;PMS5003;33751;50.816;-1.214;2024-02-23T07:46:31;0;0;
47982;PMS5003;33751;50.816;-1.214;2024-02-23T07:48:58;0;0;
47982;PMS5003;33751;50.816;-1.214;2024-02-23T07:51:25;0;0;
47982;PMS5003;33751;50.816;-1.214;2024-02-23T07:53:53;1;1;
47982;PMS5003;33751;50.816;-1.214;2024-02-23T07:56:19;0;0;
47982;PMS5003;33751;50.816;-1.214;2024-02-23T07:58:46;0;0;
47982;PMS5003;33751;50.816;-1.214;2024-02-23T08:01:13;0;0;
47982;PMS5003;33751;50.816;-1.214;2024-02-23T08:03:40;0;0;
47982;PMS5003;33751;50.816;-1.214;2024-02-23T08:06:08;0;0;
47982;PMS5003;33751;50.816;-1.214;2024-02-23T08:08:35;0;0;
47982;PMS5003;33751;50.816;-1.214;2024-02-23T08:11:02;2;0;
47982;PMS5003;33751;50.816;-1.214;2024-02-23T08:13:29;0;0;
47982;PMS5003;33751;50.816;-1.214;2024-02-23T08:15:56;0;0;
47982;PMS5003;33751;50.816;-1.214;2024-02-23T08:18:24;0;0;
47982;PMS5003;33751;50.816;-1.214;2024-02-23T08:20:51;1;0;
47982;PMS5003;33751;50.816;-1.214;2024-02-23T08:23:17;0;0;
47982;PMS5003;33751;50.816;-1.214;2024-02-23T08:25:45;1;1;
47982;PMS5003;33751;50.816;-1.214;2024-02-23T08:28:12;0;0;
47982;PMS5003;33751;50.816;-1.214;2024-02-23T08:30:39;0;0;
47982;PMS5003;33751;50.816;-1.214;2024-02-23T08:33:06;1;1;
47982;PMS5003;33751;50.816;-1.214;2024-02-23T08:35:33;0;0;
47982;PMS5003;33751;50.816;-1.214;2024-02-23T08:38:00;0;0;
47982;PMS5003;33751;50.816;-1.214;2024-02-23T08:40:28;0;0;
47982;PMS5003;33751;50.816;-1.214;2024-02-23T08:42:54;1;0;
47982;PMS5003;33751;50.816;-1.214;2024-02-23T08:45:20;0;0;
47982;PMS5003;33751;50.816;-1.214;2024-02-23T08:47:47;0;0;
47982;PMS5003;33751;50.816;-1.214;2024-02-23T08:50:13;0;0;
47982;PMS5003;33751;50.816;-1.214;2024-02-23T08:52:41;2;0;
47982;PMS5003;33751;50.816;-1.214;2024-02-23T08:55:07;0;0;
47982;PMS5003;33751;50.816;-1.214;2024-02-23T08:57:35;2;0;
47982;PMS5003;33751;50.816;-1.214;2024-02-23T09:00:01;0;0;
47982;PMS5003;33751;50.816;-1.214;2024-02-23T09:02:28;2;0;
47982;PMS5003;33751;50.816;-1.214;2024-02-23T09:04:55;3;2;
47982;PMS5003;33751;50.816;-1.214;2024-02-23T09:07:22;2;2;
47982;PMS5003;33751;50.816;-1.214;2024-02-23T09:09:49;2;2;
47982;PMS5003;33751;50.816;-1.214;2024-02-23T09:12:17;3;0;
47982;PMS5003;33751;50.816;-1.214;2024-02-23T09:14:44;2;1;
47982;PMS5003;33751;50.816;-1.214;2024-02-23T09:17:12;1;0;
47982;PMS5003;33751;50.816;-1.214;2024-02-23T09:19:39;2;0;
47982;PMS5003;33751;50.816;-1.214;2024-02-23T09:22:05;0;0;
47982;PMS5003;33751;50.816;-1.214;2024-02-23T09:24:32;1;1;
47982;PMS5003;33751;50.816;-1.214;2024-02-23T09:26:59;2;2;
47982;PMS5003;33751;50.816;-1.214;2024-02-23T09:29:27;2;1;
47982;PMS5003;33751;50.816;-1.214;2024-02-23T09:31:54;1;1;
47982;PMS5003;33751;50.816;-1.214;2024-02-23T09:34:20;1;1;
47982;PMS5003;33751;50.816;-1.214;2024-02-23T09:36:47;1;1;
47982;PMS5003;33751;50.816;-1.214;2024-02-23T09:39:14;3;2;
47982;PMS5003;33751;50.816;-1.214;2024-02-23T09:41:42;1;1;
47982;PMS5003;33751;50.816;-1.214;2024-02-23T09:44:09;2;2;
47982;PMS5003;33751;50.816;-1.214;2024-02-23T09:46:36;0;0;
47982;PMS5003;33751;50.816;-1.214;2024-02-23T09:49:04;0;0;
47982;PMS5003;33751;50.816;-1.214;2024-02-23T09:51:31;0;0;
47982;PMS5003;33751;50.816;-1.214;2024-02-23T09:53:59;2;2;
47982;PMS5003;33751;50.816;-1.214;2024-02-23T09:56:27;1;0;
47982;PMS5003;33751;50.816;-1.214;2024-02-23T09:58:55;1;1;
47982;PMS5003;33751;50.816;-1.214;2024-02-23T10:01:24;0;0;
47982;PMS5003;33751;50.816;-1.214;2024-02-23T10:03:54;0;0;
47982;PMS5003;33751;50.816;-1.214;2024-02-23T10:06:23;0;0;
47982;PMS5003;33751;50.816;-1.214;2024-02-23T10:08:50;2;2;
47982;PMS5003;33751;50.816;-1.214;2024-02-23T10:11:17;2;2;
47982;PMS5003;33751;50.816;-1.214;2024-02-23T10:13:44;2;2;
47982;PMS5003;33751;50.816;-1.214;2024-02-23T10:16:13;1;0;
47982;PMS5003;33751;50.816;-1.214;2024-02-23T10:18:40;1;1;
47982;PMS5003;33751;50.816;-1.214;2024-02-23T10:21:07;0;0;
47982;PMS5003;33751;50.816;-1.214;2024-02-23T10:23:34;1;1;
47982;PMS5003;33751;50.816;-1.214;2024-02-23T10:26:01;0;0;
47982;PMS5003;33751;50.816;-1.214;2024-02-23T10:28:30;2;2;
47982;PMS5003;33751;50.816;-1.214;2024-02-23T10:30:56;2;0;
47982;PMS5003;33751;50.816;-1.214;2024-02-23T10:33:24;0;0;
47982;PMS5003;33751;50.816;-1.214;2024-02-23T10:35:52;1;0;
47982;PMS5003;33751;50.816;-1.214;2024-02-23T10:38:23;2;1;
47982;PMS5003;33751;50.816;-1.214;2024-02-23T10:40:52;6;6;
47982;PMS5003;33751;50.816;-1.214;2024-02-23T10:43:22;0;0;
47982;PMS5003;33751;50.816;-1.214;2024-02-23T10:45:56;5;3;
47982;PMS5003;33751;50.816;-1.214;2024-02-23T10:48:23;4;2;
47982;PMS5003;33751;50.816;-1.214;2024-02-23T10:50:51;1;1;
47982;PMS5003;33751;50.816;-1.214;2024-02-23T10:53:18;6;2;
47982;PMS5003;33751;50.816;-1.214;2024-02-23T10:55:45;2;2;
47982;PMS5003;33751;50.816;-1.214;2024-02-23T10:58:13;1;1;
47982;PMS5003;33751;50.816;-1.214;2024-02-23T11:00:40;3;0;
47982;PMS5003;33751;50.816;-1.214;2024-02-23T11:03:07;0;0;
47982;PMS5003;33751;50.816;-1.214;2024-02-23T11:05:35;0;0;
47982;PMS5003;33751;50.816;-1.214;2024-02-23T11:08:05;0;0;
47982;PMS5003;33751;50.816;-1.214;2024-02-23T11:10:41;1;0;
47982;PMS5003;33751;50.816;-1.214;2024-02-23T11:13:08;1;1;
47982;PMS5003;33751;50.816;-1.214;2024-02-23T11:15:35;0;0;
47982;PMS5003;33751;50.816;-1.214;2024-02-23T11:18:21;0;0;
47982;PMS5003;33751;50.816;-1.214;2024-02-23T11:20:53;1;0;
47982;PMS5003;33751;50.816;-1.214;2024-02-23T11:23:20;12;3;
47982;PMS5003;33751;50.816;-1.214;2024-02-23T11:25:58;0;0;
47982;PMS5003;33751;50.816;-1.214;2024-02-23T11:28:25;2;1;
47982;PMS5003;33751;50.816;-1.214;2024-02-23T11:30:53;0;0;
47982;PMS5003;33751;50.816;-1.214;2024-02-23T11:33:27;0;0;
47982;PMS5003;33751;50.816;-1.214;2024-02-23T11:36:04;0;0;
47982;PMS5003;33751;50.816;-1.214;2024-02-23T11:38:32;2;1;
47982;PMS5003;33751;50.816;-1.214;2024-02-23T11:40:59;1;1;
47982;PMS5003;33751;50.816;-1.214;2024-02-23T11:43:27;0;0;
47982;PMS5003;33751;50.816;-1.214;2024-02-23T11:45:54;0;0;
47982;PMS5003;33751;50.816;-1.214;2024-02-23T11:48:20;1;1;
47982;PMS5003;33751;50.816;-1.214;2024-02-23T11:50:48;2;2;
47982;PMS5003;33751;50.816;-1.214;2024-02-23T11:53:15;3;1;
47982;PMS5003;33751;50.816;-1.214;2024-02-23T11:55:42;2;2;
47982;PMS5003;33751;50.816;-1.214;2024-02-23T11:58:09;2;2;
47982;PMS5003;33751;50.816;-1.214;2024-02-23T12:00:35;2;1;
47982;PMS5003;33751;50.816;-1.214;2024-02-23T12:03:02;1;1;
47982;PMS5003;33751;50.816;-1.214;2024-02-23T12:05:29;16;13;
47982;PMS5003;33751;50.816;-1.214;2024-02-23T12:07:56;3;3;
47982;PMS5003;33751;50.816;-1.214;2024-02-23T12:10:23;8;2;
47982;PMS5003;33751;50.816;-1.214;2024-02-23T12:12:50;1;1;
47982;PMS5003;33751;50.816;-1.214;2024-02-23T12:15:17;4;3;
47982;PMS5003;33751;50.816;-1.214;2024-02-23T12:17:46;2;2;
47982;PMS5003;33751;50.816;-1.214;2024-02-23T12:20:13;2;0;
47982;PMS5003;33751;50.816;-1.214;2024-02-23T12:22:41;11;4;
47982;PMS5003;33751;50.816;-1.214;2024-02-23T12:25:08;5;3;
47982;PMS5003;33751;50.816;-1.214;2024-02-23T12:27:35;6;5;
47982;PMS5003;33751;50.816;-1.214;2024-02-23T12:30:03;5;5;
47982;PMS5003;33751;50.816;-1.214;2024-02-23T12:32:30;4;4;
47982;PMS5003;33751;50.816;-1.214;2024-02-23T12:34:58;10;6;
47982;PMS5003;33751;50.816;-1.214;2024-02-23T12:37:24;19;16;
47982;PMS5003;33751;50.816;-1.214;2024-02-23T12:39:52;28;23;
47982;PMS5003;33751;50.816;-1.214;2024-02-23T12:42:19;20;18;
47982;PMS5003;33751;50.816;-1.214;2024-02-23T12:44:46;20;18;
47982;PMS5003;33751;50.816;-1.214;2024-02-23T12:47:13;34;23;
47982;PMS5003;33751;50.816;-1.214;2024-02-23T12:49:39;28;25;
47982;PMS5003;33751;50.816;-1.214;2024-02-23T12:52:06;28;22;
47982;PMS5003;33751;50.816;-1.214;2024-02-23T12:54:32;22;19;
47982;PMS5003;33751;50.816;-1.214;2024-02-23T12:56:59;22;22;
47982;PMS5003;33751;50.816;-1.214;2024-02-23T12:59:26;23;23;
47982;PMS5003;33751;50.816;-1.214;2024-02-23T13:01:54;27;25;
47982;PMS5003;33751;50.816;-1.214;2024-02-23T13:04:21;22;20;
47982;PMS5003;33751;50.816;-1.214;2024-02-23T13:06:48;24;22;
47982;PMS5003;33751;50.816;-1.214;2024-02-23T13:09:15;29;27;
47982;PMS5003;33751;50.816;-1.214;2024-02-23T13:11:42;24;20;
47982;PMS5003;33751;50.816;-1.214;2024-02-23T13:14:09;21;18;
47982;PMS5003;33751;50.816;-1.214;2024-02-23T13:16:36;17;16;
47982;PMS5003;33751;50.816;-1.214;2024-02-23T13:19:03;17;15;
47982;PMS5003;33751;50.816;-1.214;2024-02-23T13:21:30;19;18;
47982;PMS5003;33751;50.816;-1.214;2024-02-23T13:23:57;19;17;
47982;PMS5003;33751;50.816;-1.214;2024-02-23T13:26:25;14;13;
47982;PMS5003;33751;50.816;-1.214;2024-02-23T13:28:52;21;17;
47982;PMS5003;33751;50.816;-1.214;2024-02-23T13:31:19;14;14;
47982;PMS5003;33751;50.816;-1.214;2024-02-23T13:33:47;16;13;
47982;PMS5003;33751;50.816;-1.214;2024-02-23T13:36:13;14;13;
47982;PMS5003;33751;50.816;-1.214;2024-02-23T13:38:41;12;12;
47982;PMS5003;33751;50.816;-1.214;2024-02-23T13:41:07;14;11;
47982;PMS5003;33751;50.816;-1.214;2024-02-23T13:43:34;20;11;
47982;PMS5003;33751;50.816;-1.214;2024-02-23T13:46:01;11;10;
47982;PMS5003;33751;50.816;-1.214;2024-02-23T13:48:28;19;13;
47982;PMS5003;33751;50.816;-1.214;2024-02-23T13:50:55;12;10;
47982;PMS5003;33751;50.816;-1.214;2024-02-23T13:53:21;10;10;
47982;PMS5003;33751;50.816;-1.214;2024-02-23T13:55:48;9;9;
47982;PMS5003;33751;50.816;-1.214;2024-02-23T13:58:15;8;6;
47982;PMS5003;33751;50.816;-1.214;2024-02-23T14:00:42;11;9;
47982;PMS5003;33751;50.816;-1.214;2024-02-23T14:03:10;8;8;
47982;PMS5003;33751;50.816;-1.214;2024-02-23T14:05:43;7;7;
47982;PMS5003;33751;50.816;-1.214;2024-02-23T14:08:10;6;6;
47982;PMS5003;33751;50.816;-1.214;2024-02-23T14:10:37;8;5;
47982;PMS5003;33751;50.816;-1.214;2024-02-23T14:13:04;6;6;
47982;PMS5003;33751;50.816;-1.214;2024-02-23T14:15:30;5;4;
47982;PMS5003;33751;50.816;-1.214;2024-02-23T14:17:58;4;4;
47982;PMS5003;33751;50.816;-1.214;2024-02-23T14:20:25;4;4;
47982;PMS5003;33751;50.816;-1.214;2024-02-23T14:22:52;3;3;
47982;PMS5003;33751;50.816;-1.214;2024-02-23T14:25:19;5;3;
47982;PMS5003;33751;50.816;-1.214;2024-02-23T14:27:46;8;3;
47982;PMS5003;33751;50.816;-1.214;2024-02-23T14:30:13;3;3;
47982;PMS5003;33751;50.816;-1.214;2024-02-23T14:32:41;4;3;
47982;PMS5003;33751;50.816;-1.214;2024-02-23T14:35:08;2;2;
47982;PMS5003;33751;50.816;-1.214;2024-02-23T14:37:34;4;4;
47982;PMS5003;33751;50.816;-1.214;2024-02-23T14:40:02;3;2;
47982;PMS5003;33751;50.816;-1.214;2024-02-23T14:42:29;2;2;
47982;PMS5003;33751;50.816;-1.214;2024-02-23T14:44:56;3;3;
47982;PMS5003;33751;50.816;-1.214;2024-02-23T14:47:23;5;4;
47982;PMS5003;33751;50.816;-1.214;2024-02-23T14:49:50;3;3;
47982;PMS5003;33751;50.816;-1.214;2024-02-23T14:52:17;4;2;
47982;PMS5003;33751;50.816;-1.214;2024-02-23T14:54:43;5;3;
47982;PMS5003;33751;50.816;-1.214;2024-02-23T14:57:10;4;3;
47982;PMS5003;33751;50.816;-1.214;2024-02-23T14:59:36;3;2;
47982;PMS5003;33751;50.816;-1.214;2024-02-23T15:02:03;2;2;
47982;PMS5003;33751;50.816;-1.214;2024-02-23T15:04:30;7;2;
47982;PMS5003;33751;50.816;-1.214;2024-02-23T15:06:57;2;2;
47982;PMS5003;33751;50.816;-1.214;2024-02-23T15:09:23;2;2;
47982;PMS5003;33751;50.816;-1.214;2024-02-23T15:11:50;2;2;
47982;PMS5003;33751;50.816;-1.214;2024-02-23T15:14:17;1;1;
47982;PMS5003;33751;50.816;-1.214;2024-02-23T15:16:44;2;1;
47982;PMS5003;33751;50.816;-1.214;2024-02-23T15:19:11;1;1;
47982;PMS5003;33751;50.816;-1.214;2024-02-23T15:21:38;3;1;
47982;PMS5003;33751;50.816;-1.214;2024-02-23T15:24:04;1;1;
47982;PMS5003;33751;50.816;-1.214;2024-02-23T15:26:32;0;0;
47982;PMS5003;33751;50.816;-1.214;2024-02-23T15:28:59;2;2;
47982;PMS5003;33751;50.816;-1.214;2024-02-23T15:31:26;4;4;
47982;PMS5003;33751;50.816;-1.214;2024-02-23T15:33:53;1;1;
47982;PMS5003;33751;50.816;-1.214;2024-02-23T15:36:20;0;0;
47982;PMS5003;33751;50.816;-1.214;2024-02-23T15:38:46;0;0;
47982;PMS5003;33751;50.816;-1.214;2024-02-23T15:41:13;1;1;
47982;PMS5003;33751;50.816;-1.214;2024-02-23T15:43:39;0;0;
47982;PMS5003;33751;50.816;-1.214;2024-02-23T15:46:06;0;0;
47982;PMS5003;33751;50.816;-1.214;2024-02-23T15:48:32;1;1;
47982;PMS5003;33751;50.816;-1.214;2024-02-23T15:50:58;0;0;
47982;PMS5003;33751;50.816;-1.214;2024-02-23T15:53:25;0;0;
47982;PMS5003;33751;50.816;-1.214;2024-02-23T15:55:52;1;1;
47982;PMS5003;33751;50.816;-1.214;2024-02-23T15:58:19;1;1;
47982;PMS5003;33751;50.816;-1.214;2024-02-23T16:00:45;0;0;
47982;PMS5003;33751;50.816;-1.214;2024-02-23T16:03:12;0;0;
47982;PMS5003;33751;50.816;-1.214;2024-02-23T16:05:38;1;1;
47982;PMS5003;33751;50.816;-1.214;2024-02-23T16:08:05;1;0;
47982;PMS5003;33751;50.816;-1.214;2024-02-23T16:10:33;2;2;
47982;PMS5003;33751;50.816;-1.214;2024-02-23T16:13:00;1;1;
47982;PMS5003;33751;50.816;-1.214;2024-02-23T16:15:26;1;1;
47982;PMS5003;33751;50.816;-1.214;2024-02-23T16:17:53;1;1;
47982;PMS5003;33751;50.816;-1.214;2024-02-23T16:20:20;1;1;
47982;PMS5003;33751;50.816;-1.214;2024-02-23T16:22:48;0;0;
47982;PMS5003;33751;50.816;-1.214;2024-02-23T16:25:15;0;0;
47982;PMS5003;33751;50.816;-1.214;2024-02-23T16:27:42;1;0;
47982;PMS5003;33751;50.816;-1.214;2024-02-23T16:30:10;1;1;